Time;durP1;ratioP1;P1;durP2;ratioP2;P2;SDS_P1;SDS_P2;PMS_P1;PMS_P2;Temp;Humidity;BMP_temperature;BMP_pressure;BME280_temperature;BME280_humidity;BME280_pressure;Samples;Min_cycle;Max_cycle;Signal;HPM_P1;HPM_P2
2024/02/01 00:01:04;;;;;;;;;;;;;;;-0.17;100.00;101153.52;109329;1253;67096;-62
2024/02/01 00:03:32;;;;;;;;;;;;;;;-0.20;100.00;101155.18;109363;1252;73375;-55
2024/02/01 00:05:59;;;;;;;;;;;;;;;-0.22;100.00;101155.69;109348;1254;60923;-56
2024/02/01 00:08:27;;;;;;;;;;;;;;;-0.23;100.00;101151.45;109392;1253;59213;-56
2024/02/01 00:10:54;;;;;;;;;;;;;;;-0.26;100.00;101144.91;109356;1253;74735;-57
2024/02/01 00:13:22;;;;;;;;;;;;;;;-0.28;100.00;101136.88;109306;1253;65902;-59
2024/02/01 00:15:49;;;;;;;;;;;;;;;-0.31;100.00;101131.92;109341;1252;73161;-57
2024/02/01 00:18:17;;;;;;;;;;;;;;;-0.33;100.00;101127.46;109359;1254;59576;-56
2024/02/01 00:20:45;;;;;;;;;;;;;;;-0.36;100.00;101124.40;109319;1253;59407;-56
2024/02/01 00:23:12;;;;;;;;;;;;;;;-0.41;100.00;101117.85;109359;1254;73422;-54
2024/02/01 00:25:40;;;;;;;;;;;;;;;-0.45;100.00;101114.84;109306;1254;67426;-56
2024/02/01 00:28:07;;;;;;;;;;;;;;;-0.49;100.00;101110.64;109329;1253;72622;-57
2024/02/01 00:30:37;;;;;;;;;;;;;;;-0.52;100.00;101103.47;109320;1252;60495;-55
2024/02/01 00:33:04;;;;;;;;;;;;;;;-0.56;100.00;101098.77;109367;1252;59360;-56
2024/02/01 00:35:32;;;;;;;;;;;;;;;-0.60;100.00;101099.52;109312;1251;75093;-63
2024/02/01 00:38:00;;;;;;;;;;;;;;;-0.64;100.00;101093.93;109335;1252;65951;-56
2024/02/01 00:40:27;;;;;;;;;;;;;;;-0.68;100.00;101086.48;109339;1252;72798;-56
2024/02/01 00:42:55;;;;;;;;;;;;;;;-0.71;100.00;101087.68;109343;1252;59675;-56
2024/02/01 00:45:22;;;;;;;;;;;;;;;-0.73;100.00;101085.90;109354;1253;58990;-57
2024/02/01 00:47:50;;;;;;;;;;;;;;;-0.73;100.00;101082.52;109317;1254;75349;-56
2024/02/01 00:50:18;;;;;;;;;;;;;;;-0.75;100.00;101078.71;109361;1253;67050;-55
2024/02/01 00:52:46;;;;;;;;;;;;;;;-0.76;100.00;101075.34;109333;1254;72712;-56
2024/02/01 00:55:14;;;;;;;;;;;;;;;-0.78;100.00;101076.02;109336;1253;60946;-57
2024/02/01 00:57:41;;;;;;;;;;;;;;;-0.82;100.00;101074.33;109349;1253;58954;-55
2024/02/01 01:00:09;;;;;;;;;;;;;;;-0.84;100.00;101068.98;109312;1253;74749;-55
2024/02/01 01:02:36;;;;;;;;;;;;;;;-0.85;100.00;101067.52;109356;1253;67473;-56
2024/02/01 01:05:04;;;;;;;;;;;;;;;-0.89;100.00;101065.36;109345;1254;72727;-56
2024/02/01 01:07:32;;;;;;;;;;;;;;;-0.92;100.00;101063.33;109314;1253;59815;-56
2024/02/01 01:09:59;;;;;;;;;;;;;;;-0.94;100.00;101057.48;109315;1252;60010;-63
2024/02/01 01:12:27;;;;;;;;;;;;;;;-0.95;100.00;101055.48;109371;1253;73447;-56
2024/02/01 01:14:54;;;;;;;;;;;;;;;-0.98;100.00;101054.31;109322;1254;66980;-58
2024/02/01 01:17:22;;;;;;;;;;;;;;;-1.00;100.00;101056.77;109312;1253;72747;-56
2024/02/01 01:19:50;;;;;;;;;;;;;;;-1.03;100.00;101053.56;109273;1253;59798;-54
2024/02/01 01:22:17;;;;;;;;;;;;;;;-1.05;100.00;101056.22;109316;1254;59735;-59
2024/02/01 01:24:45;;;;;;;;;;;;;;;-1.06;100.00;101059.53;109357;1253;73445;-57
2024/02/01 01:27:13;;;;;;;;;;;;;;;-1.08;100.00;101058.47;109373;1252;66102;-54
2024/02/01 01:29:40;;;;;;;;;;;;;;;-1.10;100.00;101056.50;109300;1253;71408;-54
2024/02/01 01:32:08;;;;;;;;;;;;;;;-1.10;100.00;101048.85;109330;1253;59627;-54
2024/02/01 01:34:35;;;;;;;;;;;;;;;-1.10;100.00;101047.31;109344;1252;60621;-54
2024/02/01 01:37:03;;;;;;;;;;;;;;;-1.10;100.00;101046.46;109354;1251;74732;-55
2024/02/01 01:39:30;;;;;;;;;;;;;;;-1.09;100.00;101041.48;109359;1254;66939;-55
2024/02/01 01:41:58;;;;;;;;;;;;;;;-1.08;100.00;101037.80;109359;1253;71580;-54
2024/02/01 01:44:25;;;;;;;;;;;;;;;-1.07;100.00;101035.52;109321;1252;59915;-61
2024/02/01 01:46:53;;;;;;;;;;;;;;;-1.04;100.00;101035.03;109354;1252;60028;-54
2024/02/01 01:49:20;;;;;;;;;;;;;;;-1.03;100.00;101033.21;109384;1253;74698;-54
2024/02/01 01:51:48;;;;;;;;;;;;;;;-1.03;100.00;101033.25;109369;1252;65741;-54
2024/02/01 01:54:16;;;;;;;;;;;;;;;-1.04;100.00;101031.45;109346;1253;72717;-54
2024/02/01 01:56:43;;;;;;;;;;;;;;;-1.05;100.00;101030.27;109305;1253;58968;-60
2024/02/01 01:59:11;;;;;;;;;;;;;;;-1.06;100.00;101025.91;109348;1253;58908;-54
2024/02/01 02:01:39;;;;;;;;;;;;;;;-1.07;100.00;101030.25;109371;1253;73437;-54
2024/02/01 02:04:07;;;;;;;;;;;;;;;-1.09;100.00;101032.59;109348;1251;66025;-57
2024/02/01 02:06:34;;;;;;;;;;;;;;;-1.11;100.00;101034.55;109301;1254;71340;-57
2024/02/01 02:09:02;;;;;;;;;;;;;;;-1.13;100.00;101038.27;109330;1252;58921;-54
2024/02/01 02:11:30;;;;;;;;;;;;;;;-1.15;100.00;101042.65;109397;1252;59891;-54
2024/02/01 02:13:57;;;;;;;;;;;;;;;-1.17;100.00;101041.11;109255;1252;73726;-54
2024/02/01 02:16:25;;;;;;;;;;;;;;;-1.20;100.00;101034.43;109340;1254;66946;-53
2024/02/01 02:18:52;;;;;;;;;;;;;;;-1.24;100.00;101033.41;109338;1253;72740;-58
2024/02/01 02:21:21;;;;;;;;;;;;;;;-1.26;100.00;101028.60;109328;1253;61811;-54
2024/02/01 02:23:49;;;;;;;;;;;;;;;-1.29;100.00;101026.56;109358;1252;59477;-54
2024/02/01 02:26:17;;;;;;;;;;;;;;;-1.31;100.00;101021.73;109351;1252;73477;-53
2024/02/01 02:28:44;;;;;;;;;;;;;;;-1.34;100.00;101015.94;109376;1251;64933;-55
2024/02/01 02:31:12;;;;;;;;;;;;;;;-1.35;100.00;101020.76;109292;1253;72723;-58
2024/02/01 02:33:39;;;;;;;;;;;;;;;-1.34;100.00;101021.88;109330;1252;59686;-55
2024/02/01 02:36:09;;;;;;;;;;;;;;;-1.33;100.00;101019.95;109357;1253;59849;-53
2024/02/01 02:38:40;;;;;;;;;;;;;;;-1.32;100.00;101018.55;109335;1251;74722;-55
2024/02/01 02:41:08;;;;;;;;;;;;;;;-1.32;100.00;101015.30;109367;1253;67183;-55
2024/02/01 02:43:35;;;;;;;;;;;;;;;-1.31;100.00;101009.98;109387;1253;73234;-54
2024/02/01 02:46:03;;;;;;;;;;;;;;;-1.30;100.00;101011.10;109371;1252;58958;-54
2024/02/01 02:48:32;;;;;;;;;;;;;;;-1.30;100.00;101008.36;109340;1252;60062;-54
2024/02/01 02:51:00;;;;;;;;;;;;;;;-1.29;100.00;101005.61;109361;1252;74722;-53
2024/02/01 02:53:27;;;;;;;;;;;;;;;-1.29;100.00;101001.66;109311;1252;67630;-54
2024/02/01 02:55:55;;;;;;;;;;;;;;;-1.28;100.00;101001.27;109310;1252;72721;-54
2024/02/01 02:58:22;;;;;;;;;;;;;;;-1.29;100.00;100991.27;109342;1253;59313;-55
2024/02/01 03:00:50;;;;;;;;;;;;;;;-1.28;100.00;100986.98;109357;1252;59024;-55
2024/02/01 03:03:18;;;;;;;;;;;;;;;-1.29;100.00;100983.41;109372;1252;73898;-55
2024/02/01 03:05:45;;;;;;;;;;;;;;;-1.28;100.00;100984.73;109342;1252;66173;-54
2024/02/01 03:08:13;;;;;;;;;;;;;;;-1.28;100.00;100981.50;109327;1253;73133;-54
2024/02/01 03:10:41;;;;;;;;;;;;;;;-1.28;100.00;100977.21;109328;1252;59080;-55
2024/02/01 03:13:11;;;;;;;;;;;;;;;-1.28;100.00;100974.33;109343;1252;58979;-54
2024/02/01 03:15:39;;;;;;;;;;;;;;;-1.29;100.00;100966.73;109306;1253;73467;-54
2024/02/01 03:18:10;;;;;;;;;;;;;;;-1.28;100.00;100960.89;109382;1253;66886;-54
2024/02/01 03:20:38;;;;;;;;;;;;;;;-1.27;100.00;100957.40;109263;1252;72437;-55
2024/02/01 03:23:07;;;;;;;;;;;;;;;-1.27;100.00;100954.30;109289;1253;59962;-55
2024/02/01 03:25:34;;;;;;;;;;;;;;;-1.25;100.00;100953.34;109314;1252;58942;-56
2024/02/01 03:28:04;;;;;;;;;;;;;;;-1.24;100.00;100949.73;109366;1251;73457;-54
2024/02/01 03:30:31;;;;;;;;;;;;;;;-1.24;100.00;100946.31;109468;1251;66921;-55
2024/02/01 03:33:03;;;;;;;;;;;;;;;-1.23;100.00;100941.46;109501;1251;71561;-54
2024/02/01 03:35:31;;;;;;;;;;;;;;;-1.22;100.00;100937.30;109423;1253;59706;-55
2024/02/01 03:38:00;;;;;;;;;;;;;;;-1.21;100.00;100937.27;109496;1251;59155;-54
2024/02/01 03:40:27;;;;;;;;;;;;;;;-1.21;100.00;100934.36;109488;1251;75148;-54
2024/02/01 03:42:55;;;;;;;;;;;;;;;-1.20;100.00;100934.19;109465;1251;67747;-55
2024/02/01 03:45:22;;;;;;;;;;;;;;;-1.21;100.00;100932.84;109390;1254;71422;-56
2024/02/01 03:47:50;;;;;;;;;;;;;;;-1.22;100.00;100930.83;109393;1253;59193;-54
2024/02/01 03:50:19;;;;;;;;;;;;;;;-1.23;100.00;100931.39;109319;1252;59865;-54
2024/02/01 03:52:47;;;;;;;;;;;;;;;-1.24;100.00;100929.59;109301;1254;74651;-54
2024/02/01 03:55:17;;;;;;;;;;;;;;;-1.24;100.00;100930.27;109341;1253;65803;-61
2024/02/01 03:57:45;;;;;;;;;;;;;;;-1.24;100.00;100927.36;109250;1254;71657;-55
2024/02/01 04:00:30;;;;;;;;;;;;;;;-1.21;100.00;100929.09;109271;1254;59634;-54
2024/02/01 04:02:58;;;;;;;;;;;;;;;-1.18;100.00;100931.48;109270;1253;59235;-54
2024/02/01 04:05:26;;;;;;;;;;;;;;;-1.17;100.00;100932.12;109252;1256;73432;-55
2024/02/01 04:07:54;;;;;;;;;;;;;;;-1.15;100.00;100928.05;109326;1253;66930;-55
2024/02/01 04:10:21;;;;;;;;;;;;;;;-1.14;100.00;100920.29;109263;1254;71695;-55
2024/02/01 04:12:49;;;;;;;;;;;;;;;-1.11;100.00;100915.87;109297;1254;58961;-54
2024/02/01 04:15:16;;;;;;;;;;;;;;;-1.06;100.00;100913.35;109358;1252;59028;-54
2024/02/01 04:17:44;;;;;;;;;;;;;;;-1.02;100.00;100914.13;109313;1252;75166;-54
2024/02/01 04:20:12;;;;;;;;;;;;;;;-0.97;100.00;100908.52;109351;1253;66000;-54
2024/02/01 04:22:39;;;;;;;;;;;;;;;-0.92;100.00;100911.01;109287;1254;71431;-54
2024/02/01 04:25:08;;;;;;;;;;;;;;;-0.88;100.00;100912.11;109350;1252;59270;-54
2024/02/01 04:27:36;;;;;;;;;;;;;;;-0.86;100.00;100916.71;109263;1253;58960;-61
2024/02/01 04:30:04;;;;;;;;;;;;;;;-0.83;100.00;100915.87;109291;1253;74677;-54
2024/02/01 04:32:32;;;;;;;;;;;;;;;-0.81;100.00;100908.95;109424;1251;65651;-54
2024/02/01 04:35:03;;;;;;;;;;;;;;;-0.80;100.00;100906.46;109488;1251;72826;-54
2024/02/01 04:37:34;;;;;;;;;;;;;;;-0.79;100.00;100896.02;109399;1251;58984;-60
2024/02/01 04:40:03;;;;;;;;;;;;;;;-0.79;100.00;100891.91;109377;1253;59263;-54
2024/02/01 04:42:31;;;;;;;;;;;;;;;-0.79;100.00;100888.85;109318;1253;74741;-54
2024/02/01 04:44:58;;;;;;;;;;;;;;;-0.80;100.00;100886.33;109302;1253;66973;-54
2024/02/01 04:47:26;;;;;;;;;;;;;;;-0.77;100.00;100889.23;109428;1253;71955;-54
2024/02/01 04:49:53;;;;;;;;;;;;;;;-0.77;100.00;100885.29;109183;1253;59363;-55
2024/02/01 04:52:21;;;;;;;;;;;;;;;-0.77;100.00;100886.48;109214;1253;58889;-54
2024/02/01 04:54:48;;;;;;;;;;;;;;;-0.78;100.00;100886.56;109223;1253;74801;-54
2024/02/01 04:57:16;;;;;;;;;;;;;;;-0.81;100.00;100885.85;109324;1252;66921;-54
2024/02/01 04:59:44;;;;;;;;;;;;;;;-0.80;100.00;100878.46;109274;1254;72551;-61
2024/02/01 05:02:11;;;;;;;;;;;;;;;-0.80;100.00;100870.33;109333;1253;60177;-55
2024/02/01 05:04:39;;;;;;;;;;;;;;;-0.80;100.00;100868.24;109378;1252;59020;-55
2024/02/01 05:07:07;;;;;;;;;;;;;;;-0.78;100.00;100866.08;109355;1251;73376;-56
2024/02/01 05:09:38;;;;;;;;;;;;;;;-0.75;100.00;100868.11;109341;1252;66810;-55
2024/02/01 05:12:08;;;;;;;;;;;;;;;-0.70;100.00;100866.47;109299;1251;72430;-55
2024/02/01 05:14:36;;;;;;;;;;;;;;;-0.66;100.00;100867.21;109345;1252;59646;-55
2024/02/01 05:17:04;;;;;;;;;;;;;;;-0.59;100.00;100863.91;109470;1252;59360;-55
2024/02/01 05:19:31;;;;;;;;;;;;;;;-0.53;100.00;100858.17;109391;1251;74723;-55
2024/02/01 05:22:00;;;;;;;;;;;;;;;-0.47;100.00;100853.89;109341;1252;68038;-55
2024/02/01 05:24:28;;;;;;;;;;;;;;;-0.40;100.00;100855.19;109277;1254;72513;-55
2024/02/01 05:26:55;;;;;;;;;;;;;;;-0.33;100.00;100851.14;109242;1253;61046;-54
2024/02/01 05:29:23;;;;;;;;;;;;;;;-0.26;100.00;100855.77;109413;1251;59465;-55
2024/02/01 05:31:51;;;;;;;;;;;;;;;-0.18;100.00;100859.60;109442;1251;74755;-63
2024/02/01 05:34:19;;;;;;;;;;;;;;;-0.12;100.00;100862.95;109417;1251;68256;-54
2024/02/01 05:36:47;;;;;;;;;;;;;;;-0.06;100.00;100862.02;109426;1251;73101;-56
2024/02/01 05:39:30;;;;;;;;;;;;;;;0.00;100.00;100856.14;109432;1251;61370;-54
2024/02/01 05:41:58;;;;;;;;;;;;;;;0.07;100.00;100850.08;109428;1251;59879;-63
2024/02/01 05:44:26;;;;;;;;;;;;;;;0.12;100.00;100851.09;109462;1251;73716;-55
2024/02/01 05:46:54;;;;;;;;;;;;;;;0.16;100.00;100850.16;109504;1251;66985;-55
2024/02/01 05:49:26;;;;;;;;;;;;;;;0.21;100.00;100849.49;109464;1251;73590;-54
2024/02/01 05:51:54;;;;;;;;;;;;;;;0.25;100.00;100849.73;109422;1251;60712;-64
2024/02/01 05:54:22;;;;;;;;;;;;;;;0.29;100.00;100857.55;109399;1254;58954;-58
2024/02/01 05:56:49;;;;;;;;;;;;;;;0.31;100.00;100856.00;109440;1251;73563;-57
2024/02/01 05:59:17;;;;;;;;;;;;;;;0.35;100.00;100853.52;109469;1251;67151;-57
2024/02/01 06:01:45;;;;;;;;;;;;;;;0.39;100.00;100850.67;109418;1253;71976;-62
2024/02/01 06:04:13;;;;;;;;;;;;;;;0.44;100.00;100845.59;109306;1252;61709;-57
2024/02/01 06:06:44;;;;;;;;;;;;;;;0.48;100.00;100841.33;109353;1252;60143;-57
2024/02/01 06:09:12;;;;;;;;;;;;;;;0.57;100.00;100839.23;109399;1251;74740;-56
2024/02/01 06:11:40;;;;;;;;;;;;;;;0.64;100.00;100829.64;109377;1252;65665;-57
2024/02/01 06:14:08;;;;;;;;;;;;;;;0.74;100.00;100826.94;109312;1253;73234;-56
2024/02/01 06:16:35;;;;;;;;;;;;;;;0.85;100.00;100823.80;109346;1252;60980;-57
2024/02/01 06:19:03;;;;;;;;;;;;;;;0.96;100.00;100816.50;109362;1253;59933;-56
2024/02/01 06:21:31;;;;;;;;;;;;;;;1.05;100.00;100809.52;109257;1253;74729;-57
2024/02/01 06:23:59;;;;;;;;;;;;;;;1.13;100.00;100803.34;109192;1253;64678;-59
2024/02/01 06:26:28;;;;;;;;;;;;;;;1.18;100.00;100801.09;109274;1256;73081;-56
2024/02/01 06:28:57;;;;;;;;;;;;;;;1.22;100.00;100797.53;109221;1253;59660;-57
2024/02/01 06:31:28;;;;;;;;;;;;;;;1.26;100.00;100798.99;109310;1252;60916;-60
2024/02/01 06:33:56;;;;;;;;;;;;;;;1.29;100.00;100797.08;109198;1253;76763;-66
2024/02/01 06:36:29;;;;;;;;;;;;;;;1.31;100.00;100793.15;109193;1253;67822;-58
2024/02/01 06:41:28;;;;;;;;;;;;;;;1.35;100.00;100791.79;109272;1253;59641;-57
2024/02/01 06:44:20;;;;;;;;;;;;;;;1.39;100.00;100789.44;109197;1253;58931;-63
2024/02/01 06:47:05;;;;;;;;;;;;;;;1.44;100.00;100787.72;109213;1253;74737;-55
2024/02/01 06:52:24;;;;;;;;;;;;;;;1.56;100.00;100777.48;109244;1253;72753;-55
2024/02/01 07:00:40;;;;;;;;;;;;;;;1.79;100.00;100770.28;109161;1253;74745;-58
2024/02/01 07:03:31;;;;;;;;;;;;;;;1.86;100.00;100769.90;109230;1253;66655;-55
2024/02/01 07:06:06;;;;;;;;;;;;;;;1.96;100.00;100757.30;109195;1253;73161;-57
2024/02/01 07:13:58;;;;;;;;;;;;;;;2.24;100.00;100747.68;109177;1253;75148;-57
2024/02/01 07:16:54;;;;;;;;;;;;;;;2.34;100.00;100748.10;109291;1253;69133;-55
2024/02/01 07:57:51;;;;;;;;;;;;;;;5.82;100.00;100670.39;109390;1253;67226;-56
2024/02/01 08:00:27;;;;;;;;;;;;;;;6.20;100.00;100654.52;109332;1252;72789;-60
2024/02/01 08:03:11;;;;;;;;;;;;;;;6.47;100.00;100641.41;109289;1253;60200;-54
2024/02/01 08:08:26;;;;;;;;;;;;;;;6.95;100.00;100616.41;109267;1253;73682;-54
2024/02/01 08:10:57;;;;;;;;;;;;;;;7.08;100.00;100609.30;109284;1253;67083;-57
2024/02/01 08:13:24;;;;;;;;;;;;;;;7.15;100.00;100602.94;109243;1253;72661;-56
2024/02/01 08:15:54;;;;;;;;;;;;;;;7.15;100.00;100601.58;109204;1253;59369;-60
2024/02/01 08:18:23;;;;;;;;;;;;;;;7.11;100.00;100596.73;109279;1253;58985;-55
2024/02/01 08:20:50;;;;;;;;;;;;;;;7.14;100.00;100594.90;109300;1253;74783;-55
2024/02/01 08:23:21;;;;;;;;;;;;;;;7.17;100.00;100591.12;109230;1253;66920;-57
2024/02/01 08:25:48;;;;;;;;;;;;;;;7.26;100.00;100587.74;109182;1253;73976;-60
2024/02/01 08:28:16;;;;;;;;;;;;;;;7.39;100.00;100578.48;109203;1254;62596;-57
2024/02/01 08:30:48;;;;;;;;;;;;;;;7.50;100.00;100581.36;109251;1253;63206;-57
2024/02/01 08:33:19;;;;;;;;;;;;;;;7.67;100.00;100580.78;109274;1253;75650;-56
2024/02/01 08:35:47;;;;;;;;;;;;;;;7.73;100.00;100581.66;109211;1252;67825;-56
2024/02/01 08:38:17;;;;;;;;;;;;;;;7.71;100.00;100587.02;109233;1253;74855;-56
2024/02/01 08:40:46;;;;;;;;;;;;;;;7.78;100.00;100587.40;109253;1253;62019;-56
2024/02/01 08:43:14;;;;;;;;;;;;;;;7.89;100.00;100584.76;109248;1253;62408;-56
2024/02/01 08:45:44;;;;;;;;;;;;;;;8.02;100.00;100584.92;109271;1253;76800;-63
2024/02/01 08:48:13;;;;;;;;;;;;;;;8.38;100.00;100582.71;109274;1253;68390;-56
2024/02/01 08:50:46;;;;;;;;;;;;;;;8.78;100.00;100579.89;109228;1254;74799;-56
2024/02/01 08:53:14;;;;;;;;;;;;;;;9.07;100.00;100574.78;109217;1256;62532;-56
2024/02/01 08:55:43;;;;;;;;;;;;;;;9.16;100.00;100567.00;109197;1253;60676;-59
2024/02/01 08:58:11;;;;;;;;;;;;;;;9.01;100.00;100566.52;109222;1253;77387;-57
2024/02/01 09:00:39;;;;;;;;;;;;;;;8.80;100.00;100564.42;109262;1253;69919;-56
2024/02/01 09:03:10;;;;;;;;;;;;;;;8.66;100.00;100560.46;109238;1253;73732;-57
2024/02/01 09:05:40;;;;;;;;;;;;;;;8.49;100.00;100560.16;109224;1253;61061;-56
2024/02/01 09:08:09;;;;;;;;;;;;;;;8.36;100.00;100560.41;109240;1253;60835;-55
2024/02/01 09:10:37;;;;;;;;;;;;;;;8.18;100.00;100558.12;109246;1253;77176;-55
2024/02/01 09:13:04;;;;;;;;;;;;;;;7.91;100.00;100546.41;109223;1253;68920;-56
2024/02/01 09:15:32;;;;;;;;;;;;;;;7.62;100.00;100544.18;109244;1253;71736;-55
2024/02/01 09:18:01;;;;;;;;;;;;;;;7.35;100.00;100537.45;109183;1253;62007;-56
2024/02/01 09:20:29;;;;;;;;;;;;;;;7.12;100.00;100529.94;109244;1252;60705;-56
2024/02/01 09:22:57;;;;;;;;;;;;;;;6.93;100.00;100528.73;109237;1253;75324;-55
2024/02/01 09:25:24;;;;;;;;;;;;;;;6.80;100.00;100522.23;109244;1253;69249;-56
2024/02/01 09:27:53;;;;;;;;;;;;;;;6.69;100.00;100517.41;109121;1253;73606;-57
2024/02/01 09:30:22;;;;;;;;;;;;;;;6.56;100.00;100515.40;109204;1255;60202;-55
2024/02/01 09:32:51;;;;;;;;;;;;;;;6.44;100.00;100509.38;109261;1253;61761;-55
2024/02/01 09:35:20;;;;;;;;;;;;;;;6.36;100.00;100508.77;109258;1252;74709;-55
2024/02/01 09:37:53;;;;;;;;;;;;;;;6.29;100.00;100511.72;109261;1253;67045;-56
2024/02/01 09:40:21;;;;;;;;;;;;;;;6.16;100.00;100505.29;109255;1254;73740;-56
2024/02/01 09:42:50;;;;;;;;;;;;;;;5.95;100.00;100502.75;109236;1253;61245;-55
2024/02/01 09:45:25;;;;;;;;;;;;;;;5.70;100.00;100505.25;109210;1253;61274;-55
2024/02/01 09:47:56;;;;;;;;;;;;;;;5.44;100.00;100505.27;109289;1253;74802;-55
2024/02/01 09:50:24;;;;;;;;;;;;;;;5.27;100.00;100507.36;109311;1253;69077;-55
2024/02/01 09:52:51;;;;;;;;;;;;;;;5.07;100.00;100502.33;109237;1252;75418;-56
2024/02/01 09:55:22;;;;;;;;;;;;;;;4.89;100.00;100506.35;109250;1253;60610;-55
2024/02/01 09:57:52;;;;;;;;;;;;;;;4.77;100.00;100507.48;109218;1253;61287;-57
2024/02/01 10:00:23;;;;;;;;;;;;;;;4.68;100.00;100505.92;109250;1253;76615;-56
2024/02/01 10:02:52;;;;;;;;;;;;;;;4.53;100.00;100507.40;109224;1252;67947;-56
2024/02/01 10:05:20;;;;;;;;;;;;;;;4.43;100.00;100506.56;109233;1253;75647;-55
2024/02/01 10:07:47;;;;;;;;;;;;;;;4.37;100.00;100506.80;109133;1253;61432;-55
2024/02/01 10:10:15;;;;;;;;;;;;;;;4.34;100.00;100517.86;109215;1253;61747;-56
2024/02/01 10:12:43;;;;;;;;;;;;;;;4.33;100.00;100512.49;109225;1253;75732;-56
2024/02/01 10:15:11;;;;;;;;;;;;;;;4.36;100.00;100512.19;109247;1252;68027;-55
2024/02/01 10:17:45;;;;;;;;;;;;;;;4.40;100.00;100509.95;109207;1253;74609;-62
2024/02/01 10:20:35;;;;;;;;;;;;;;;4.44;100.00;100512.21;109169;1253;61335;-55
2024/02/01 10:23:03;;;;;;;;;;;;;;;4.45;100.00;100506.61;109251;1253;63054;-56
2024/02/01 10:25:34;;;;;;;;;;;;;;;4.45;100.00;100510.91;109224;1253;78097;-62
2024/02/01 10:28:04;;;;;;;;;;;;;;;4.43;100.00;100511.42;109234;1252;67767;-56
2024/02/01 10:30:32;;;;;;;;;;;;;;;4.41;100.00;100514.04;109245;1253;73987;-57
2024/02/01 10:33:03;;;;;;;;;;;;;;;4.42;100.00;100509.11;109201;1253;61388;-56
2024/02/01 10:35:32;;;;;;;;;;;;;;;4.47;100.00;100509.27;109209;1253;61913;-56
2024/02/01 10:38:00;;;;;;;;;;;;;;;4.61;100.00;100507.33;109223;1253;75519;-56
2024/02/01 10:40:39;;;;;;;;;;;;;;;4.76;100.00;100503.81;109230;1253;67347;-56
2024/02/01 10:43:07;;;;;;;;;;;;;;;4.91;100.00;100508.09;109238;1253;73820;-56
2024/02/01 10:45:36;;;;;;;;;;;;;;;5.02;100.00;100503.65;109187;1253;62970;-55
2024/02/01 10:48:07;;;;;;;;;;;;;;;5.03;100.00;100492.19;109254;1253;60684;-55
2024/02/01 10:50:39;;;;;;;;;;;;;;;5.01;100.00;100490.16;109244;1253;76759;-55
2024/02/01 10:53:11;;;;;;;;;;;;;;;5.03;100.00;100486.02;109251;1253;69499;-56
2024/02/01 10:55:42;;;;;;;;;;;;;;;5.03;100.00;100483.58;109238;1253;75225;-55
2024/02/01 10:58:12;;;;;;;;;;;;;;;5.02;100.00;100485.70;109169;1253;62995;-55
2024/02/01 11:00:40;;;;;;;;;;;;;;;5.05;100.00;100482.99;109185;1253;60759;-56
2024/02/01 11:03:08;;;;;;;;;;;;;;;5.09;100.00;100483.15;109173;1253;78012;-66
2024/02/01 11:05:37;;;;;;;;;;;;;;;5.11;100.00;100478.98;109232;1253;69337;-54
2024/02/01 11:08:13;;;;;;;;;;;;;;;5.16;100.00;100476.15;109213;1253;74818;-55
2024/02/01 11:10:43;;;;;;;;;;;;;;;5.20;100.00;100475.67;109168;1258;62847;-55
2024/02/01 11:13:10;;;;;;;;;;;;;;;5.28;100.00;100472.27;109207;1253;61959;-55
2024/02/01 11:15:38;;;;;;;;;;;;;;;5.40;100.00;100466.58;109211;1253;77098;-55
2024/02/01 11:18:12;;;;;;;;;;;;;;;5.54;100.00;100468.80;109283;1253;67711;-56
2024/02/01 11:20:40;;;;;;;;;;;;;;;5.68;100.00;100465.77;109234;1252;73719;-54
2024/02/01 11:23:07;;;;;;;;;;;;;;;5.74;100.00;100464.63;109057;1253;205386;-60
2024/02/01 11:25:35;;;;;;;;;;;;;;;5.76;100.00;100463.48;109222;1253;61020;-54
2024/02/01 11:28:11;;;;;;;;;;;;;;;5.82;100.00;100459.08;109239;1253;77551;-57
2024/02/01 11:30:39;;;;;;;;;;;;;;;5.87;100.00;100456.92;109233;1253;69696;-55
2024/02/01 11:33:14;;;;;;;;;;;;;;;5.89;100.00;100453.25;109138;1253;75183;-60
2024/02/01 11:35:42;;;;;;;;;;;;;;;5.89;100.00;100446.15;109225;1253;59103;-54
2024/02/01 11:38:10;;;;;;;;;;;;;;;5.91;100.00;100442.00;109214;1253;61137;-55
2024/02/01 11:40:42;;;;;;;;;;;;;;;5.93;100.00;100439.73;109248;1253;76945;-55
2024/02/01 11:43:10;;;;;;;;;;;;;;;5.94;100.00;100435.06;109227;1253;69122;-60
2024/02/01 11:45:38;;;;;;;;;;;;;;;5.97;100.00;100433.14;109217;1254;74171;-55
2024/02/01 11:48:06;;;;;;;;;;;;;;;5.99;100.00;100435.05;109194;1253;61389;-55
2024/02/01 11:50:34;;;;;;;;;;;;;;;6.02;100.00;100431.48;109275;1253;61882;-56
2024/02/01 11:53:05;;;;;;;;;;;;;;;6.02;100.00;100428.86;109185;1253;76766;-55
2024/02/01 11:55:34;;;;;;;;;;;;;;;6.02;100.00;100426.46;109218;1253;67851;-56
2024/02/01 11:58:05;;;;;;;;;;;;;;;6.03;100.00;100422.27;109198;1253;73564;-56
2024/02/01 12:00:37;;;;;;;;;;;;;;;6.04;100.00;100419.84;109214;1253;60688;-55
2024/02/01 12:03:32;;;;;;;;;;;;;;;6.08;100.00;100417.72;109268;1253;61706;-56
2024/02/01 12:06:00;;;;;;;;;;;;;;;6.16;100.00;100419.27;109241;1253;75994;-56
2024/02/01 12:08:29;;;;;;;;;;;;;;;6.21;100.00;100410.80;109272;1253;66700;-56
2024/02/01 12:11:01;;;;;;;;;;;;;;;6.26;100.00;100401.32;109223;1253;72736;-56
2024/02/01 12:13:28;;;;;;;;;;;;;;;6.30;100.00;100396.42;109205;1253;60353;-57
2024/02/01 12:15:58;;;;;;;;;;;;;;;6.30;100.00;100386.49;109139;1253;61862;-57
2024/02/01 12:18:25;;;;;;;;;;;;;;;6.29;100.00;100383.64;109219;1253;76617;-55
2024/02/01 12:20:53;;;;;;;;;;;;;;;6.27;100.00;100381.19;109222;1253;68874;-65
2024/02/01 12:23:21;;;;;;;;;;;;;;;6.26;100.00;100388.59;109202;1253;74791;-56
2024/02/01 12:25:50;;;;;;;;;;;;;;;6.22;100.00;100385.85;109206;1254;62485;-55
2024/02/01 12:28:18;;;;;;;;;;;;;;;6.16;100.00;100385.45;109257;1253;61781;-55
2024/02/01 12:30:45;;;;;;;;;;;;;;;6.09;100.00;100385.21;109249;1253;75774;-54
2024/02/01 12:33:13;;;;;;;;;;;;;;;6.04;100.00;100386.91;109183;1253;68334;-57
2024/02/01 12:35:43;;;;;;;;;;;;;;;5.99;100.00;100386.77;109242;1253;74825;-56
2024/02/01 12:38:14;;;;;;;;;;;;;;;5.92;100.00;100385.84;109218;1254;63114;-56
2024/02/01 12:40:44;;;;;;;;;;;;;;;5.84;100.00;100387.30;109296;1253;59700;-55
2024/02/01 12:43:13;;;;;;;;;;;;;;;5.77;100.00;100381.92;109202;1253;76331;-55
2024/02/01 12:45:46;;;;;;;;;;;;;;;5.73;100.00;100381.65;109209;1253;68857;-56
2024/02/01 12:48:16;;;;;;;;;;;;;;;5.68;100.00;100387.00;109227;1253;74629;-56
2024/02/01 12:50:44;;;;;;;;;;;;;;;5.63;100.00;100381.05;109181;1254;63172;-57
2024/02/01 12:53:12;;;;;;;;;;;;;;;5.63;100.00;100385.73;109198;1253;62139;-55
2024/02/01 12:55:40;;;;;;;;;;;;;;;5.62;100.00;100381.85;109185;1253;74855;-55
2024/02/01 12:58:08;;;;;;;;;;;;;;;5.60;100.00;100388.04;109238;1253;68465;-57
2024/02/01 13:00:35;;;;;;;;;;;;;;;5.61;100.00;100389.90;109215;1253;73548;-55
2024/02/01 13:03:03;;;;;;;;;;;;;;;5.59;100.00;100389.24;109228;1253;64278;-61
2024/02/01 13:05:31;;;;;;;;;;;;;;;5.55;100.00;100384.10;109228;1253;61136;-54
2024/02/01 13:07:59;;;;;;;;;;;;;;;5.54;100.00;100385.55;109239;1253;76599;-54
2024/02/01 13:10:27;;;;;;;;;;;;;;;5.52;100.00;100387.48;109233;1253;69410;-55
2024/02/01 13:12:54;;;;;;;;;;;;;;;5.49;100.00;100385.52;109221;1254;75454;-55
2024/02/01 13:15:24;;;;;;;;;;;;;;;5.47;100.00;100384.02;109080;1254;60305;-55
2024/02/01 13:17:52;;;;;;;;;;;;;;;5.43;100.00;100384.21;109217;1254;60884;-55
2024/02/01 13:20:21;;;;;;;;;;;;;;;5.40;100.00;100379.89;109228;1253;75316;-54
2024/02/01 13:22:50;;;;;;;;;;;;;;;5.36;100.00;100374.30;109221;1254;67940;-54
2024/02/01 13:25:20;;;;;;;;;;;;;;;5.34;100.00;100365.60;109239;1254;75205;-59
2024/02/01 13:27:52;;;;;;;;;;;;;;;5.30;100.00;100365.30;109184;1252;60681;-56
2024/02/01 13:30:22;;;;;;;;;;;;;;;5.26;100.00;100357.04;109228;1253;61335;-55